Miguel Riglos, Argentina
Current Conditions -  °F | °C
As of 7:00 AM on Friday 31 Oct 2014 (Local Time) from SAOC Reporting Station
Thunderstorm Thunderstorm  
Wind Chill: 55°   Ceiling: 5000
Heat Index: 55°   Visibility: 1.8mi
Dew Point: 55°   Wind: 14mph
Humidity: 100%   Direction: 200°SSW
Pressure: 29.94"   Gusts: NA
Location:  36.85°S, 63.7°W
Report Text: SAOC 311000Z 20012KT 3000 TSRA FEW012FEW040CB OVC050 13/13 Q1014
Loading
Personal Weather Stations






























Interactive Weather Map New forecast layout! Learn more

10-Day Weather Forecast

Advertisements
Track Severe Weather on mobile